Terminal Aerodrome Forecast
Issued by NWS Sterling, VA

Current Version | Previous Version | Text Only | Print | Product List | Glossary Off
Versions: 1 2 3 4 5 6 7 8 9 10 11 12 13 14 15

532
FTUS41 KLWX 271134
TAFMRB
TAF
KMRB 271134Z 2712/2812 00000KT 1 1/2SM BR OVC002
     FM271400 14004KT 2SM BR BKN010
     FM271500 15004KT P6SM SCT015
     FM271800 17012G21KT P6SM SCT250
     FM272100 18013G21KT P6SM VCTS SCT060CB
     FM280000 18012G20KT P6SM BKN050
     FM280200 20008KT P6SM BKN060
     FM280600 VRB03KT 3SM BR SCT250=

USA.gov is the U.S. government's official web portal to all federal, state and local government web resources and services.